Time;durP1;ratioP1;P1;durP2;ratioP2;P2;SDS_P1;SDS_P2;PMS_P1;PMS_P2;Temp;Humidity;BMP_temperature;BMP_pressure;BME280_temperature;BME280_humidity;BME280_pressure;Samples;Min_cycle;Max_cycle;Signal;HPM_P1;HPM_P2
2023/07/28 00:01:48;;;;;;;41.25;39.05;;;;;;;;;;5083186;28;20059;-77
2023/07/28 00:04:14;;;;;;;44.80;42.45;;;;;;;;;;5080647;28;20526;-76
2023/07/28 00:06:39;;;;;;;43.50;41.15;;;;;;;;;;5080764;28;20029;-68
2023/07/28 00:09:04;;;;;;;40.85;38.72;;;;;;;;;;5081439;28;20031;-68
2023/07/28 00:11:30;;;;;;;43.15;40.88;;;;;;;;;;5080146;28;20042;-68
2023/07/28 00:13:55;;;;;;;42.50;40.22;;;;;;;;;;5079653;28;20024;-68
2023/07/28 00:16:20;;;;;;;40.70;38.58;;;;;;;;;;5079953;28;20168;-68
2023/07/28 00:18:46;;;;;;;40.58;38.47;;;;;;;;;;5079962;28;20328;-68
2023/07/28 00:21:11;;;;;;;38.78;36.72;;;;;;;;;;5078958;28;20036;-76
2023/07/28 00:23:36;;;;;;;37.85;35.85;;;;;;;;;;5079179;28;20032;-68
2023/07/28 00:26:02;;;;;;;35.42;33.58;;;;;;;;;;5082700;28;20054;-77
2023/07/28 00:28:28;;;;;;;39.83;37.67;;;;;;;;;;5081516;28;20035;-74
2023/07/28 00:30:54;;;;;;;39.85;37.70;;;;;;;;;;5080224;28;20450;-75
2023/07/28 00:33:19;;;;;;;37.70;35.72;;;;;;;;;;5079150;28;20047;-68
2023/07/28 00:35:46;;;;;;;39.35;37.28;;;;;;;;;;5080963;28;20032;-71
2023/07/28 00:38:11;;;;;;;37.85;35.88;;;;;;;;;;5086124;28;20060;-69
2023/07/28 00:40:37;;;;;;;39.58;37.42;;;;;;;;;;5083851;28;20033;-78
2023/07/28 00:43:04;;;;;;;38.88;36.70;;;;;;;;;;5079746;28;20477;-73
2023/07/28 00:45:32;;;;;;;38.85;36.75;;;;;;;;;;5077397;28;20036;-76
2023/07/28 00:47:58;;;;;;;37.38;35.42;;;;;;;;;;5081123;28;20046;-78
2023/07/28 00:50:24;;;;;;;39.15;37.00;;;;;;;;;;5079201;28;20035;-77
2023/07/28 00:52:50;;;;;;;37.10;35.17;;;;;;;;;;5082691;28;20036;-68
2023/07/28 00:55:16;;;;;;;36.30;34.30;;;;;;;;;;5077886;28;20032;-77
2023/07/28 00:57:41;;;;;;;36.42;34.53;;;;;;;;;;5078238;28;20414;-69
2023/07/28 01:00:07;;;;;;;37.92;35.88;;;;;;;;;;5078467;28;20031;-77
2023/07/28 01:02:33;;;;;;;38.67;36.58;;;;;;;;;;5085105;28;20039;-78
2023/07/28 01:04:58;;;;;;;37.85;35.88;;;;;;;;;;5077558;28;20377;-78
2023/07/28 01:07:47;;;;;;;39.13;37.08;;;;;;;;;;5078748;28;20177;-68
2023/07/28 01:10:21;;;;;;;38.78;36.65;;;;;;;;;;5078161;28;20047;-69
2023/07/28 01:12:46;;;;;;;37.85;35.65;;;;;;;;;;5077159;28;20040;-77
2023/07/28 01:15:14;;;;;;;41.78;39.45;;;;;;;;;;5077500;28;20035;-69
2023/07/28 01:17:39;;;;;;;40.08;37.65;;;;;;;;;;5079204;28;20032;-68
2023/07/28 01:20:05;;;;;;;42.58;40.35;;;;;;;;;;5074176;28;20426;-69
2023/07/28 01:22:48;;;;;;;41.72;39.53;;;;;;;;;;5077040;28;20319;-77
2023/07/28 01:25:55;;;;;;;38.80;36.80;;;;;;;;;;5078168;28;20405;-77
2023/07/28 01:28:21;;;;;;;40.92;38.60;;;;;;;;;;5074195;28;20082;-77
2023/07/28 01:30:47;;;;;;;42.95;40.70;;;;;;;;;;5077573;28;21042;-77
2023/07/28 01:33:12;;;;;;;44.42;42.10;;;;;;;;;;5075002;28;20036;-69
2023/07/28 01:35:38;;;;;;;44.08;41.80;;;;;;;;;;5074536;28;20405;-78
2023/07/28 01:38:04;;;;;;;44.85;42.50;;;;;;;;;;5079971;28;20046;-69
2023/07/28 01:40:29;;;;;;;42.38;40.17;;;;;;;;;;5075713;28;20474;-78
2023/07/28 01:42:55;;;;;;;42.03;39.80;;;;;;;;;;5075913;28;20120;-77
2023/07/28 01:45:20;;;;;;;41.67;39.50;;;;;;;;;;5076725;28;20089;-69
2023/07/28 01:47:46;;;;;;;43.05;40.83;;;;;;;;;;5076735;28;20108;-69
2023/07/28 01:50:11;;;;;;;42.20;39.97;;;;;;;;;;5077861;28;20059;-69
2023/07/28 01:52:36;;;;;;;43.33;41.08;;;;;;;;;;5075796;28;20047;-69
2023/07/28 01:55:02;;;;;;;42.28;40.05;;;;;;;;;;5078457;28;20025;-69
2023/07/28 01:57:28;;;;;;;42.40;39.90;;;;;;;;;;5077419;28;20036;-69
2023/07/28 01:59:54;;;;;;;42.05;39.90;;;;;;;;;;5078403;28;20042;-78
2023/07/28 02:02:19;;;;;;;40.58;38.47;;;;;;;;;;5076914;28;20059;-69
2023/07/28 02:04:46;;;;;;;42.15;39.92;;;;;;;;;;5076174;28;20335;-69
2023/07/28 02:07:11;;;;;;;40.53;38.40;;;;;;;;;;5080108;28;20028;-69
2023/07/28 02:09:36;;;;;;;42.33;40.13;;;;;;;;;;5080220;28;20425;-69
2023/07/28 02:12:02;;;;;;;41.00;38.85;;;;;;;;;;5077582;28;20038;-79
2023/07/28 02:14:27;;;;;;;40.78;38.33;;;;;;;;;;5080025;28;20118;-79
2023/07/28 02:16:52;;;;;;;37.47;35.53;;;;;;;;;;5077124;28;20039;-78
2023/07/28 02:19:18;;;;;;;38.40;36.20;;;;;;;;;;5076265;28;20047;-69
2023/07/28 02:21:43;;;;;;;39.53;37.45;;;;;;;;;;5076873;28;20086;-69
2023/07/28 02:24:08;;;;;;;40.40;38.28;;;;;;;;;;5078231;28;20032;-69
2023/07/28 02:26:34;;;;;;;42.20;40.03;;;;;;;;;;5077627;28;20032;-69
2023/07/28 02:28:59;;;;;;;43.00;40.63;;;;;;;;;;5075272;28;20036;-70
2023/07/28 02:31:24;;;;;;;41.97;39.78;;;;;;;;;;5075627;28;20043;-69
2023/07/28 02:33:50;;;;;;;41.28;39.10;;;;;;;;;;5077763;28;20721;-78
2023/07/28 02:36:15;;;;;;;40.72;38.55;;;;;;;;;;5077140;28;20044;-69
2023/07/28 02:38:40;;;;;;;39.90;37.80;;;;;;;;;;5079276;28;20036;-69
2023/07/28 02:41:07;;;;;;;37.85;35.88;;;;;;;;;;5079837;28;20033;-79
2023/07/28 02:43:32;;;;;;;36.60;34.67;;;;;;;;;;5075720;28;20028;-69
2023/07/28 02:45:58;;;;;;;39.08;37.05;;;;;;;;;;5076982;28;20031;-78
2023/07/28 02:48:23;;;;;;;39.25;37.22;;;;;;;;;;5079862;28;20028;-77
2023/07/28 02:50:50;;;;;;;40.70;38.60;;;;;;;;;;5062202;28;20058;-68
2023/07/28 02:53:16;;;;;;;38.97;36.88;;;;;;;;;;5085823;28;20024;-78
2023/07/28 02:55:42;;;;;;;41.08;38.88;;;;;;;;;;5075247;28;20047;-79
2023/07/28 02:58:08;;;;;;;41.70;39.53;;;;;;;;;;5068169;28;20035;-79
2023/07/28 03:00:36;;;;;;;42.92;40.72;;;;;;;;;;5077310;28;20329;-79
2023/07/28 03:03:02;;;;;;;42.90;40.70;;;;;;;;;;5078040;28;20124;-70
2023/07/28 03:05:28;;;;;;;44.45;42.10;;;;;;;;;;5076337;28;20123;-70
2023/07/28 03:07:53;;;;;;;42.00;39.80;;;;;;;;;;5074273;28;20124;-70
2023/07/28 03:10:18;;;;;;;40.97;38.88;;;;;;;;;;5075160;28;20074;-70
2023/07/28 03:12:44;;;;;;;40.65;38.55;;;;;;;;;;5076335;28;20104;-69
2023/07/28 03:15:09;;;;;;;40.97;38.88;;;;;;;;;;5074647;28;20028;-69
2023/07/28 03:17:37;;;;;;;42.10;39.90;;;;;;;;;;5076158;28;20102;-70
2023/07/28 03:20:03;;;;;;;43.45;41.20;;;;;;;;;;5073093;28;20388;-70
2023/07/28 03:22:30;;;;;;;45.15;42.83;;;;;;;;;;5074487;28;20583;-81
2023/07/28 03:24:56;;;;;;;44.70;42.40;;;;;;;;;;5073822;28;20040;-81
2023/07/28 03:27:21;;;;;;;43.35;41.05;;;;;;;;;;5073405;28;20102;-81
2023/07/28 03:29:46;;;;;;;42.78;40.13;;;;;;;;;;5076252;28;20069;-70
2023/07/28 03:32:12;;;;;;;45.88;43.45;;;;;;;;;;5075585;28;20036;-67
2023/07/28 03:34:37;;;;;;;42.35;40.17;;;;;;;;;;5073879;28;20033;-69
2023/07/28 03:37:03;;;;;;;42.72;40.53;;;;;;;;;;5078626;28;20040;-69
2023/07/28 03:39:29;;;;;;;39.72;37.63;;;;;;;;;;5079175;28;20321;-69
2023/07/28 03:41:55;;;;;;;43.22;40.92;;;;;;;;;;5080892;28;20036;-79
2023/07/28 03:44:20;;;;;;;37.10;35.15;;;;;;;;;;5079156;28;20047;-76
2023/07/28 03:46:46;;;;;;;40.35;37.92;;;;;;;;;;5078750;28;20107;-75
2023/07/28 03:49:12;;;;;;;42.47;40.25;;;;;;;;;;5081378;28;20086;-69
2023/07/28 03:51:37;;;;;;;38.42;36.42;;;;;;;;;;5079529;28;20454;-77
2023/07/28 03:54:03;;;;;;;40.92;38.80;;;;;;;;;;5081403;28;20485;-77
2023/07/28 03:56:28;;;;;;;37.20;35.30;;;;;;;;;;5080024;28;20024;-78
2023/07/28 03:58:54;;;;;;;37.40;35.40;;;;;;;;;;5076805;28;20277;-68
2023/07/28 04:01:21;;;;;;;38.05;36.10;;;;;;;;;;5080370;28;20166;-68
2023/07/28 04:03:47;;;;;;;36.95;35.05;;;;;;;;;;5078029;28;20039;-77
2023/07/28 04:06:12;;;;;;;36.42;34.53;;;;;;;;;;5078250;28;20138;-77
2023/07/28 04:08:38;;;;;;;39.13;37.10;;;;;;;;;;5079891;28;20115;-67
2023/07/28 04:11:04;;;;;;;37.60;35.65;;;;;;;;;;5078587;28;20036;-77
2023/07/28 04:13:29;;;;;;;37.35;35.38;;;;;;;;;;5078644;28;20039;-77
2023/07/28 04:15:55;;;;;;;36.78;34.78;;;;;;;;;;5078462;28;20381;-67
2023/07/28 04:18:20;;;;;;;36.90;34.92;;;;;;;;;;5075703;28;20581;-77
2023/07/28 04:20:46;;;;;;;34.05;32.25;;;;;;;;;;5076022;28;20032;-67
2023/07/28 04:23:11;;;;;;;38.58;36.58;;;;;;;;;;5076007;28;20036;-77
2023/07/28 04:25:36;;;;;;;31.40;29.73;;;;;;;;;;5080130;28;20522;-67
2023/07/28 04:28:02;;;;;;;35.35;33.38;;;;;;;;;;5079283;28;20024;-66
2023/07/28 04:30:27;;;;;;;32.65;30.92;;;;;;;;;;5077871;28;20036;-77
2023/07/28 04:32:53;;;;;;;35.15;33.28;;;;;;;;;;5080660;28;20358;-67
2023/07/28 04:35:18;;;;;;;32.45;30.73;;;;;;;;;;5081491;28;20041;-77
2023/07/28 04:37:43;;;;;;;31.90;30.20;;;;;;;;;;5078874;28;20263;-78
2023/07/28 04:40:09;;;;;;;31.73;30.08;;;;;;;;;;5082585;28;20024;-77
2023/07/28 04:42:36;;;;;;;33.70;31.88;;;;;;;;;;5076316;28;20032;-77
2023/07/28 04:45:02;;;;;;;31.90;30.23;;;;;;;;;;5076341;28;20036;-77
2023/07/28 04:47:27;;;;;;;31.73;30.02;;;;;;;;;;5077682;28;20039;-78
2023/07/28 04:49:52;;;;;;;31.98;30.25;;;;;;;;;;5077170;28;20043;-78
2023/07/28 04:52:18;;;;;;;33.47;31.73;;;;;;;;;;5075482;28;20075;-78
2023/07/28 04:54:43;;;;;;;34.63;32.80;;;;;;;;;;5078686;28;20025;-77
2023/07/28 04:57:08;;;;;;;37.53;35.55;;;;;;;;;;5090679;28;20024;-66
2023/07/28 04:59:34;;;;;;;34.55;32.65;;;;;;;;;;5077066;28;20054;-78
2023/07/28 05:01:59;;;;;;;32.90;31.15;;;;;;;;;;5076730;28;20033;-66
2023/07/28 05:04:25;;;;;;;28.83;27.25;;;;;;;;;;5069184;28;20491;-67
2023/07/28 05:06:50;;;;;;;30.02;28.42;;;;;;;;;;5078290;28;20051;-78
2023/07/28 05:09:15;;;;;;;29.42;27.85;;;;;;;;;;5078559;28;20143;-77
2023/07/28 05:11:41;;;;;;;30.73;29.10;;;;;;;;;;5077095;28;20121;-66
2023/07/28 05:14:08;;;;;;;28.13;26.63;;;;;;;;;;5079506;28;20028;-65
2023/07/28 05:16:34;;;;;;;27.38;25.85;;;;;;;;;;5076678;28;20044;-66
2023/07/28 05:18:59;;;;;;;27.27;25.83;;;;;;;;;;5079069;28;20119;-66
2023/07/28 05:21:25;;;;;;;26.90;25.42;;;;;;;;;;5076831;28;20070;-66
2023/07/28 05:23:50;;;;;;;27.00;25.50;;;;;;;;;;5077258;28;20237;-66
2023/07/28 05:26:15;;;;;;;26.58;25.17;;;;;;;;;;5093815;28;20167;-78
2023/07/28 05:28:41;;;;;;;25.83;24.42;;;;;;;;;;5077356;28;20036;-66
2023/07/28 05:31:07;;;;;;;26.60;25.20;;;;;;;;;;5076073;28;20496;-66
2023/07/28 05:33:32;;;;;;;25.60;24.23;;;;;;;;;;5076418;28;20058;-66
2023/07/28 05:36:04;;;;;;;25.85;24.50;;;;;;;;;;5077893;28;20114;-76
2023/07/28 05:38:29;;;;;;;27.45;25.98;;;;;;;;;;5078270;28;20044;-65
2023/07/28 05:41:03;;;;;;;26.20;24.80;;;;;;;;;;5074045;28;20051;-65
2023/07/28 05:43:32;;;;;;;27.77;26.27;;;;;;;;;;5076731;28;20041;-65
2023/07/28 05:45:58;;;;;;;27.30;25.85;;;;;;;;;;5078461;28;20433;-78
2023/07/28 05:48:23;;;;;;;28.15;26.65;;;;;;;;;;5075666;28;20024;-65
2023/07/28 05:50:51;;;;;;;28.70;27.20;;;;;;;;;;5075680;28;20043;-65
2023/07/28 05:53:16;;;;;;;29.17;27.63;;;;;;;;;;5078385;28;20043;-77
2023/07/28 05:55:41;;;;;;;27.80;26.27;;;;;;;;;;5080703;28;20063;-74
2023/07/28 05:58:07;;;;;;;26.23;24.85;;;;;;;;;;5078574;28;20044;-75
2023/07/28 06:00:32;;;;;;;28.15;26.65;;;;;;;;;;5080167;28;20111;-65
2023/07/28 06:02:57;;;;;;;28.95;27.45;;;;;;;;;;5077205;28;20529;-76
2023/07/28 06:05:23;;;;;;;29.20;27.70;;;;;;;;;;5072503;28;20035;-74
2023/07/28 06:07:48;;;;;;;29.80;28.27;;;;;;;;;;5075923;28;20070;-74
2023/07/28 06:10:13;;;;;;;27.52;26.08;;;;;;;;;;5075862;28;20082;-65
2023/07/28 06:12:39;;;;;;;28.15;26.65;;;;;;;;;;5077816;28;20048;-65
2023/07/28 06:15:07;;;;;;;30.27;28.58;;;;;;;;;;5075358;28;20514;-75
2023/07/28 06:17:33;;;;;;;30.30;28.75;;;;;;;;;;5074557;28;20162;-75
2023/07/28 06:19:58;;;;;;;31.77;30.13;;;;;;;;;;5077643;28;20028;-76
2023/07/28 06:22:24;;;;;;;31.35;29.65;;;;;;;;;;5081042;28;20034;-66
2023/07/28 06:24:50;;;;;;;31.67;30.05;;;;;;;;;;5076165;28;20111;-65
2023/07/28 06:27:15;;;;;;;28.65;27.15;;;;;;;;;;5077197;28;20040;-66
2023/07/28 06:29:40;;;;;;;30.17;28.58;;;;;;;;;;5076995;28;20473;-65
2023/07/28 06:32:06;;;;;;;30.27;28.70;;;;;;;;;;5075923;28;20098;-77
2023/07/28 06:34:32;;;;;;;34.88;33.10;;;;;;;;;;5076244;28;20039;-66
2023/07/28 06:36:57;;;;;;;41.83;39.70;;;;;;;;;;5076430;28;20093;-76
2023/07/28 06:39:24;;;;;;;34.80;33.00;;;;;;;;;;5074602;28;20056;-76
2023/07/28 06:41:50;;;;;;;35.50;33.65;;;;;;;;;;5075262;28;20090;-77
2023/07/28 06:44:17;;;;;;;37.78;35.80;;;;;;;;;;5075801;28;20358;-74
2023/07/28 06:46:42;;;;;;;40.33;38.25;;;;;;;;;;5076877;28;20040;-77
2023/07/28 06:49:08;;;;;;;37.75;35.78;;;;;;;;;;5076431;28;20043;-77
2023/07/28 06:51:33;;;;;;;34.70;32.90;;;;;;;;;;5074409;28;20050;-77
2023/07/28 06:53:59;;;;;;;35.83;33.97;;;;;;;;;;5072255;28;20032;-78
2023/07/28 06:56:24;;;;;;;41.85;39.72;;;;;;;;;;5076399;28;20545;-76
2023/07/28 06:58:49;;;;;;;40.08;38.03;;;;;;;;;;5075020;28;20411;-78
2023/07/28 07:01:15;;;;;;;35.70;33.88;;;;;;;;;;5075519;28;20098;-78
2023/07/28 07:03:40;;;;;;;38.10;36.15;;;;;;;;;;5074710;28;20055;-77
2023/07/28 07:06:06;;;;;;;33.25;31.52;;;;;;;;;;5071383;28;20036;-77
2023/07/28 07:08:32;;;;;;;38.17;36.22;;;;;;;;;;5075640;28;20040;-78
2023/07/28 07:10:58;;;;;;;35.70;33.88;;;;;;;;;;5075571;28;20093;-77
2023/07/28 07:13:23;;;;;;;33.53;31.83;;;;;;;;;;5071086;28;20119;-76
2023/07/28 07:15:48;;;;;;;43.00;40.83;;;;;;;;;;5074870;28;20597;-76
2023/07/28 07:18:14;;;;;;;45.45;43.05;;;;;;;;;;5073410;28;20040;-76
2023/07/28 07:20:40;;;;;;;39.90;37.80;;;;;;;;;;5070299;28;20025;-77
2023/07/28 07:23:05;;;;;;;41.42;39.33;;;;;;;;;;5078318;28;20081;-69
2023/07/28 07:25:31;;;;;;;46.97;44.60;;;;;;;;;;5074013;28;20071;-68
2023/07/28 07:27:56;;;;;;;34.22;32.45;;;;;;;;;;5073435;28;20028;-68
2023/07/28 07:30:22;;;;;;;29.30;27.80;;;;;;;;;;5066032;28;20629;-69
2023/07/28 07:32:47;;;;;;;42.03;39.90;;;;;;;;;;5069425;28;20374;-68
2023/07/28 07:35:12;;;;;;;42.33;40.17;;;;;;;;;;5076024;28;20047;-69
2023/07/28 07:37:38;;;;;;;45.72;43.40;;;;;;;;;;5076436;28;20044;-69
2023/07/28 07:40:06;;;;;;;40.40;38.33;;;;;;;;;;5072285;28;20037;-68
2023/07/28 07:42:49;;;;;;;35.15;33.35;;;;;;;;;;5075491;28;20032;-68
2023/07/28 07:45:15;;;;;;;38.25;36.15;;;;;;;;;;5076138;28;20454;-76
2023/07/28 07:47:41;;;;;;;36.75;34.85;;;;;;;;;;5074971;28;20483;-77
2023/07/28 07:50:08;;;;;;;28.50;27.00;;;;;;;;;;5074098;28;20024;-75
2023/07/28 07:52:35;;;;;;;33.40;31.65;;;;;;;;;;5073772;28;20036;-76
2023/07/28 07:55:01;;;;;;;28.83;27.33;;;;;;;;;;5078238;28;20054;-76
2023/07/28 07:57:26;;;;;;;28.95;27.42;;;;;;;;;;5078198;28;20490;-74
2023/07/28 07:59:52;;;;;;;31.65;30.00;;;;;;;;;;5074193;28;20540;-77
2023/07/28 08:02:17;;;;;;;29.33;27.77;;;;;;;;;;5076830;28;20097;-76
2023/07/28 08:04:43;;;;;;;32.15;30.48;;;;;;;;;;5076292;28;20478;-77
2023/07/28 08:07:08;;;;;;;37.17;35.28;;;;;;;;;;5075416;28;20556;-78
2023/07/28 08:09:34;;;;;;;37.05;35.15;;;;;;;;;;5075784;28;20036;-77
2023/07/28 08:12:00;;;;;;;37.35;35.42;;;;;;;;;;5075641;28;20638;-77
2023/07/28 08:14:25;;;;;;;42.70;40.50;;;;;;;;;;5074242;28;20059;-77
2023/07/28 08:16:51;;;;;;;41.17;39.00;;;;;;;;;;5074884;28;20132;-77
2023/07/28 08:19:16;;;;;;;34.22;32.45;;;;;;;;;;5075456;28;20463;-77
2023/07/28 08:21:42;;;;;;;37.15;35.22;;;;;;;;;;5080278;28;20086;-78
2023/07/28 08:24:08;;;;;;;42.83;40.63;;;;;;;;;;5079138;28;20068;-77
2023/07/28 08:26:33;;;;;;;44.00;41.80;;;;;;;;;;5080390;28;20024;-77
2023/07/28 08:28:59;;;;;;;52.88;50.25;;;;;;;;;;5077437;28;20877;-76
2023/07/28 08:31:24;;;;;;;44.53;42.28;;;;;;;;;;5081371;28;20519;-77
2023/07/28 08:33:50;;;;;;;54.70;51.97;;;;;;;;;;5077180;28;20059;-78
2023/07/28 08:36:15;;;;;;;78.80;74.93;;;;;;;;;;5074546;28;20040;-76
2023/07/28 08:38:41;;;;;;;78.47;74.57;;;;;;;;;;5081536;28;20070;-76
2023/07/28 08:41:06;;;;;;;119.72;113.90;;;;;;;;;;5077406;28;20028;-76
2023/07/28 08:43:32;;;;;;;73.05;69.43;;;;;;;;;;5076343;28;20362;-75
2023/07/28 08:45:57;;;;;;;90.00;85.57;;;;;;;;;;5078532;28;20124;-76
2023/07/28 08:48:23;;;;;;;73.22;69.60;;;;;;;;;;5078975;28;20293;-77
2023/07/28 08:50:49;;;;;;;43.13;40.92;;;;;;;;;;5076956;28;20056;-75
2023/07/28 08:53:16;;;;;;;58.05;55.17;;;;;;;;;;5078573;28;20125;-76
2023/07/28 08:55:42;;;;;;;50.05;47.55;;;;;;;;;;5078259;28;20036;-78
2023/07/28 08:58:19;;;;;;;39.17;37.17;;;;;;;;;;5077555;28;20124;-78
2023/07/28 09:00:48;;;;;;;46.97;44.63;;;;;;;;;;5079437;28;20115;-78
2023/07/28 09:03:14;;;;;;;40.10;38.05;;;;;;;;;;5076572;28;20034;-76
2023/07/28 09:05:40;;;;;;;48.72;46.28;;;;;;;;;;5077814;28;20606;-78
2023/07/28 09:08:07;;;;;;;60.63;57.60;;;;;;;;;;5076821;28;20036;-77
2023/07/28 09:10:48;;;;;;;71.43;66.63;;;;;;;;;;5076129;28;20028;-76
2023/07/28 09:13:16;;;;;;;65.70;62.45;;;;;;;;;;5078326;28;20032;-76
2023/07/28 09:15:41;;;;;;;102.55;97.53;;;;;;;;;;5078652;28;20039;-77
2023/07/28 09:18:11;;;;;;;142.32;135.40;;;;;;;;;;5082695;28;20094;-77
2023/07/28 09:20:38;;;;;;;185.23;176.30;;;;;;;;;;5079112;28;20039;-76
2023/07/28 09:23:05;;;;;;;167.00;158.90;;;;;;;;;;5081981;28;20107;-77
2023/07/28 09:25:32;;;;;;;171.85;163.50;;;;;;;;;;5078917;28;20503;-74
2023/07/28 09:27:58;;;;;;;175.27;166.75;;;;;;;;;;5081492;28;20047;-75
2023/07/28 09:30:24;;;;;;;158.25;150.50;;;;;;;;;;5078313;28;20589;-76
2023/07/28 09:32:52;;;;;;;174.70;166.20;;;;;;;;;;5077388;28;20033;-76
2023/07/28 09:35:19;;;;;;;161.10;153.23;;;;;;;;;;5076317;28;20327;-76
2023/07/28 09:37:47;;;;;;;194.05;184.68;;;;;;;;;;5080983;28;20031;-75
2023/07/28 09:40:18;;;;;;;192.02;182.73;;;;;;;;;;5078772;28;20040;-74
2023/07/28 09:42:49;;;;;;;199.15;189.45;;;;;;;;;;5077636;28;20131;-76
2023/07/28 09:45:16;;;;;;;238.90;227.35;;;;;;;;;;5076488;28;20036;-75
2023/07/28 09:47:44;;;;;;;220.07;209.43;;;;;;;;;;5081058;28;20032;-76
2023/07/28 09:50:12;;;;;;;247.07;235.07;;;;;;;;;;5077968;28;20085;-76
2023/07/28 09:52:42;;;;;;;268.75;255.65;;;;;;;;;;5076948;28;20129;-76
2023/07/28 09:55:11;;;;;;;221.80;211.07;;;;;;;;;;5076590;28;20023;-77
2023/07/28 09:57:39;;;;;;;250.60;238.52;;;;;;;;;;5079114;28;20125;-76
2023/07/28 10:00:08;;;;;;;247.50;235.55;;;;;;;;;;5077434;28;20044;-76
2023/07/28 10:02:35;;;;;;;230.63;219.48;;;;;;;;;;5079829;28;20484;-77
2023/07/28 10:05:01;;;;;;;225.88;214.98;;;;;;;;;;5082956;28;20366;-76
2023/07/28 10:07:28;;;;;;;239.48;227.88;;;;;;;;;;5078056;28;20055;-76
2023/07/28 10:09:53;;;;;;;231.45;220.18;;;;;;;;;;5076668;28;20532;-75
2023/07/28 10:12:23;;;;;;;222.55;211.82;;;;;;;;;;5075192;28;20131;-75
2023/07/28 10:15:00;;;;;;;218.32;207.75;;;;;;;;;;5076772;28;20052;-76
2023/07/28 10:17:32;;;;;;;223.65;212.80;;;;;;;;;;5077012;28;20036;-76
2023/07/28 10:19:58;;;;;;;237.02;225.55;;;;;;;;;;5073503;28;20036;-75
2023/07/28 10:22:26;;;;;;;218.90;208.32;;;;;;;;;;5077602;28;20290;-75
2023/07/28 10:24:56;;;;;;;219.90;209.25;;;;;;;;;;5076568;28;20071;-74
2023/07/28 10:27:36;;;;;;;213.75;203.40;;;;;;;;;;5073693;28;20131;-75
2023/07/28 10:30:11;;;;;;;207.13;197.10;;;;;;;;;;5076318;28;20068;-75
2023/07/28 10:32:39;;;;;;;192.32;182.95;;;;;;;;;;5076544;28;20499;-75
2023/07/28 10:35:07;;;;;;;189.00;179.85;;;;;;;;;;5075397;28;20041;-76
2023/07/28 10:37:33;;;;;;;185.25;176.27;;;;;;;;;;5075888;28;20361;-75
2023/07/28 10:40:27;;;;;;;177.32;168.68;;;;;;;;;;5077272;28;20028;-75
2023/07/28 10:42:53;;;;;;;151.43;143.98;;;;;;;;;;5077336;28;20116;-76
2023/07/28 10:45:19;;;;;;;161.93;154.02;;;;;;;;;;5075331;28;20039;-75
2023/07/28 10:47:45;;;;;;;128.38;122.05;;;;;;;;;;5059784;28;20028;-75
2023/07/28 10:50:12;;;;;;;122.43;116.43;;;;;;;;;;5074366;28;20118;-78
2023/07/28 10:52:42;;;;;;;120.22;114.28;;;;;;;;;;5076852;28;20115;-76
2023/07/28 10:55:14;;;;;;;134.27;127.70;;;;;;;;;;5079245;28;20036;-75
2023/07/28 10:57:45;;;;;;;99.90;95.03;;;;;;;;;;5075229;28;20029;-77
2023/07/28 11:00:12;;;;;;;86.35;82.10;;;;;;;;;;5073985;28;20106;-75
2023/07/28 11:02:45;;;;;;;116.03;110.32;;;;;;;;;;5080214;28;20135;-76
2023/07/28 11:05:22;;;;;;;126.97;120.78;;;;;;;;;;5072768;28;20028;-75
2023/07/28 11:07:48;;;;;;;120.43;114.50;;;;;;;;;;5075105;28;20028;-76
2023/07/28 11:10:15;;;;;;;148.77;141.50;;;;;;;;;;5075008;28;20072;-76
2023/07/28 11:12:44;;;;;;;148.20;140.90;;;;;;;;;;5077989;28;20040;-76
2023/07/28 11:15:11;;;;;;;160.70;152.85;;;;;;;;;;5075720;28;20458;-77
2023/07/28 11:17:50;;;;;;;148.50;141.18;;;;;;;;;;5058227;28;20481;-77
2023/07/28 11:20:24;;;;;;;141.38;134.43;;;;;;;;;;5063246;28;20032;-77
2023/07/28 11:23:00;;;;;;;129.05;122.72;;;;;;;;;;5076154;28;20063;-78
2023/07/28 11:25:28;;;;;;;117.68;111.85;;;;;;;;;;5075672;28;20038;-80
2023/07/28 11:27:55;;;;;;;107.35;102.10;;;;;;;;;;5076097;28;20113;-80
2023/07/28 11:30:21;;;;;;;96.63;91.90;;;;;;;;;;5074869;28;20431;-78
2023/07/28 11:32:49;;;;;;;112.00;106.53;;;;;;;;;;5076341;28;20036;-79
2023/07/28 11:35:16;;;;;;;91.28;86.78;;;;;;;;;;5074731;28;20024;-80
2023/07/28 11:37:44;;;;;;;109.82;104.40;;;;;;;;;;5078149;28;20036;-79
2023/07/28 11:40:11;;;;;;;142.10;135.10;;;;;;;;;;5072148;28;20036;-78
2023/07/28 11:42:44;;;;;;;156.48;148.80;;;;;;;;;;5077191;28;20024;-77
2023/07/28 11:45:12;;;;;;;154.25;146.70;;;;;;;;;;5076771;28;20039;-73
2023/07/28 11:47:37;;;;;;;161.77;153.85;;;;;;;;;;5075158;28;20115;-73
2023/07/28 11:50:03;;;;;;;164.02;155.90;;;;;;;;;;5074457;28;20114;-75
2023/07/28 11:52:36;;;;;;;162.73;154.77;;;;;;;;;;5076216;28;20060;-77
2023/07/28 11:55:04;;;;;;;164.40;156.32;;;;;;;;;;5074549;28;20054;-76
2023/07/28 11:57:32;;;;;;;166.52;158.32;;;;;;;;;;5083795;28;20070;-77
2023/07/28 11:59:59;;;;;;;188.60;179.00;;;;;;;;;;5079270;28;20043;-75
2023/07/28 12:02:29;;;;;;;187.18;178.07;;;;;;;;;;5078154;28;20363;-74
2023/07/28 12:04:55;;;;;;;;;;;;;;;;;;5078095;28;20036;-76
2023/07/28 12:07:29;;;;;;;154.80;147.20;;;;;;;;;;5077687;28;19981;-75
2023/07/28 12:09:59;;;;;;;167.70;159.55;;;;;;;;;;5077797;28;20031;-75
2023/07/28 12:12:31;;;;;;;;;;;;;;;;;;5069017;28;20517;-75
2023/07/28 12:15:04;;;;;;;153.38;145.88;;;;;;;;;;5079870;28;19912;-74
2023/07/28 12:17:30;;;;;;;168.45;160.18;;;;;;;;;;5078258;28;20077;-74
2023/07/28 12:20:10;;;;;;;183.40;174.48;;;;;;;;;;5081754;28;20040;-74
2023/07/28 12:22:40;;;;;;;139.18;132.32;;;;;;;;;;5076303;28;20028;-73
2023/07/28 12:25:06;;;;;;;123.95;117.88;;;;;;;;;;5079252;28;20255;-71
2023/07/28 12:27:33;;;;;;;114.00;108.40;;;;;;;;;;5079670;28;20034;-72
2023/07/28 12:29:59;;;;;;;93.10;88.50;;;;;;;;;;5078735;28;20044;-75
2023/07/28 12:32:24;;;;;;;91.72;87.25;;;;;;;;;;5067615;28;20028;-78
2023/07/28 12:34:50;;;;;;;82.13;77.97;;;;;;;;;;5078698;28;20070;-78
2023/07/28 12:37:16;;;;;;;91.43;86.78;;;;;;;;;;5076113;28;20036;-76
2023/07/28 12:39:42;;;;;;;84.85;80.63;;;;;;;;;;5077298;28;20534;-78
2023/07/28 12:42:09;;;;;;;84.97;80.68;;;;;;;;;;5078699;28;20032;-78
2023/07/28 12:44:35;;;;;;;88.07;83.78;;;;;;;;;;5078869;28;20034;-77
2023/07/28 12:47:01;;;;;;;83.40;79.18;;;;;;;;;;5081568;28;20086;-78
2023/07/28 12:49:28;;;;;;;92.15;87.60;;;;;;;;;;5079523;28;20473;-78
2023/07/28 12:52:01;;;;;;;99.13;94.28;;;;;;;;;;5079579;28;20028;-78
2023/07/28 12:54:26;;;;;;;94.70;90.05;;;;;;;;;;5079271;28;20031;-78
2023/07/28 12:56:54;;;;;;;123.93;117.85;;;;;;;;;;5082688;28;20031;-79
2023/07/28 12:59:19;;;;;;;145.52;138.45;;;;;;;;;;5078688;28;20042;-79
2023/07/28 13:01:45;;;;;;;146.82;139.65;;;;;;;;;;5079522;28;20028;-79
2023/07/28 13:04:11;;;;;;;153.65;146.15;;;;;;;;;;5074905;28;20032;-78
2023/07/28 13:06:36;;;;;;;154.85;147.27;;;;;;;;;;5079052;28;20036;-79
2023/07/28 13:09:03;;;;;;;170.23;161.85;;;;;;;;;;5080913;28;20040;-77
2023/07/28 13:11:31;;;;;;;181.88;173.05;;;;;;;;;;5068735;28;20097;-78
2023/07/28 13:13:56;;;;;;;197.02;187.48;;;;;;;;;;5077125;28;20478;-76
2023/07/28 13:16:22;;;;;;;205.75;195.77;;;;;;;;;;5080127;28;20455;-75
2023/07/28 13:18:47;;;;;;;214.23;203.85;;;;;;;;;;5079139;28;20033;-78
2023/07/28 13:21:13;;;;;;;218.70;208.20;;;;;;;;;;5080051;28;20036;-78
2023/07/28 13:23:39;;;;;;;210.05;199.85;;;;;;;;;;5075010;28;20082;-79
2023/07/28 13:26:05;;;;;;;208.70;198.55;;;;;;;;;;5077896;28;20035;-79
2023/07/28 13:28:30;;;;;;;203.02;193.18;;;;;;;;;;5076270;28;20037;-79
2023/07/28 13:30:56;;;;;;;203.82;194.00;;;;;;;;;;5083166;28;20139;-78
2023/07/28 13:33:21;;;;;;;176.55;167.65;;;;;;;;;;5080082;28;20571;-78
2023/07/28 13:35:47;;;;;;;165.23;157.13;;;;;;;;;;5079726;28;20413;-76
2023/07/28 13:38:12;;;;;;;168.98;160.75;;;;;;;;;;5076833;28;20248;-82
2023/07/28 13:40:38;;;;;;;141.43;134.48;;;;;;;;;;5078985;28;20482;-79
2023/07/28 13:43:03;;;;;;;127.38;121.13;;;;;;;;;;5077666;28;20039;-79
2023/07/28 13:45:29;;;;;;;115.60;109.95;;;;;;;;;;5081256;28;20064;-77
2023/07/28 13:47:54;;;;;;;111.10;105.65;;;;;;;;;;5076867;28;20036;-77
2023/07/28 13:50:20;;;;;;;107.30;102.03;;;;;;;;;;5074843;28;20028;-78
2023/07/28 13:52:45;;;;;;;117.35;111.60;;;;;;;;;;5077555;28;20028;-77
2023/07/28 13:55:10;;;;;;;107.93;102.57;;;;;;;;;;5076590;28;20705;-77
2023/07/28 13:57:36;;;;;;;100.45;95.50;;;;;;;;;;5075566;28;20043;-76
2023/07/28 14:00:02;;;;;;;107.65;102.30;;;;;;;;;;5074556;28;20035;-78
2023/07/28 14:02:28;;;;;;;102.50;97.47;;;;;;;;;;5076353;28;20470;-71
2023/07/28 14:04:53;;;;;;;99.88;94.95;;;;;;;;;;5077880;28;20478;-77
2023/07/28 14:07:19;;;;;;;95.97;91.25;;;;;;;;;;5077320;28;20373;-79
2023/07/28 14:09:45;;;;;;;99.55;94.65;;;;;;;;;;5077372;28;20052;-78